Аэропорт: Гомель. Гомель

ICAO: UMGG

METAR:
2018/07/22 20:00
UMGG 222000Z 35003MPS 9999 -TSRA BKN034CB BKN100 20/20 Q1005 R28/290550 NOSIG
METAR:
2018/07/22 18:37
TAF UMGG 221700Z 2218/2318 35005MPS 2000 BR BKN004 
      TEMPO 2218/2306 04004MPS 0300 TSRA FG BKN002 BKN020CB 
     FM230800 04007MPS 6000 BKN010 
      TEMPO 2308/2318 04007G12MPS 2000 SHRA BKN005 BKN020CB PROB40 
      TEMPO 2310/2318 3000 -TSRA BKN020CB